Time;durP1;ratioP1;P1;durP2;ratioP2;P2;SDS_P1;SDS_P2;PMS_P1;PMS_P2;Temp;Humidity;BMP_temperature;BMP_pressure;BME280_temperature;BME280_humidity;BME280_pressure;Samples;Min_cycle;Max_cycle;Signal;HPM_P1;HPM_P2
2023/04/22 00:01:47;;;;;;;9.90;5.07;;;;;;;8.34;59.07;100151.80;1469502;88;21434;-82
2023/04/22 00:04:13;;;;;;;7.87;5.10;;;;;;;8.31;59.10;100150.77;1474930;88;22240;-81
2023/04/22 00:06:40;;;;;;;12.43;5.70;;;;;;;8.27;59.46;100153.34;1458206;88;21508;-82
2023/04/22 00:09:06;;;;;;;9.00;5.50;;;;;;;8.22;59.26;100155.07;1473571;88;21301;-81
2023/04/22 00:11:34;;;;;;;8.23;4.80;;;;;;;8.19;59.55;100158.48;1467837;88;22639;-81
2023/04/22 00:14:00;;;;;;;8.07;5.73;;;;;;;8.15;59.67;100152.66;1466559;88;21471;-82
2023/04/22 00:16:27;;;;;;;9.50;5.57;;;;;;;8.09;59.33;100155.36;1466848;88;22316;-82
2023/04/22 00:18:53;;;;;;;15.87;6.10;;;;;;;8.06;59.40;100151.69;1471568;88;21542;-82
2023/04/22 00:21:19;;;;;;;9.40;5.03;;;;;;;8.01;60.20;100151.75;1463271;88;21360;-82
2023/04/22 00:23:46;;;;;;;17.13;5.70;;;;;;;7.97;61.14;100151.20;1470874;88;21345;-81
2023/04/22 00:26:12;;;;;;;9.60;5.07;;;;;;;7.92;61.20;100149.45;1474627;88;22189;-82
2023/04/22 00:28:38;;;;;;;8.77;5.30;;;;;;;7.88;61.14;100149.36;1467301;88;21368;-81
2023/04/22 00:31:05;;;;;;;9.13;5.00;;;;;;;7.84;61.43;100153.25;1465192;88;21553;-82
2023/04/22 00:33:31;;;;;;;8.27;4.80;;;;;;;7.79;61.30;100148.38;1471522;88;21368;-82
2023/04/22 00:35:57;;;;;;;8.10;4.60;;;;;;;7.79;61.69;100150.19;1471624;88;22246;-84
2023/04/22 00:38:23;;;;;;;5.70;3.97;;;;;;;7.79;61.47;100148.87;1455176;88;21479;-83
2023/04/22 00:40:50;;;;;;;9.13;4.97;;;;;;;7.80;62.04;100147.92;1467977;88;21434;-82
2023/04/22 00:43:16;;;;;;;10.27;5.17;;;;;;;7.79;61.46;100147.06;1473556;88;21436;-83
2023/04/22 00:45:45;;;;;;;7.53;4.50;;;;;;;7.80;61.41;100143.48;1469797;88;22455;-83
2023/04/22 00:48:12;;;;;;;9.90;5.70;;;;;;;7.80;61.42;100137.38;1472965;88;22282;-83
2023/04/22 00:50:39;;;;;;;9.20;4.97;;;;;;;7.79;61.32;100139.65;1473276;88;21463;-83
2023/04/22 00:53:05;;;;;;;9.40;5.40;;;;;;;7.76;60.66;100137.29;1469655;88;22353;-83
2023/04/22 00:55:31;;;;;;;9.23;5.50;;;;;;;7.74;60.52;100139.22;1468012;88;22335;-83
2023/04/22 00:58:01;;;;;;;10.90;6.33;;;;;;;7.69;61.54;100144.42;1467480;88;21546;-83
2023/04/22 01:00:28;;;;;;;11.68;6.25;;;;;;;7.63;61.34;100139.70;1463892;88;21426;-83
2023/04/22 01:02:55;;;;;;;8.87;5.33;;;;;;;7.58;60.61;100144.53;1470760;88;21566;-81
2023/04/22 01:05:23;;;;;;;9.40;5.23;;;;;;;7.53;61.17;100149.37;1471976;88;21338;-80
2023/04/22 01:07:50;;;;;;;9.07;5.60;;;;;;;7.52;61.49;100154.30;1470943;88;21486;-82
2023/04/22 01:10:18;;;;;;;8.73;4.70;;;;;;;7.46;61.31;100148.25;1474687;88;21382;-81
2023/04/22 01:12:44;;;;;;;11.13;6.97;;;;;;;7.39;62.17;100144.02;1472217;88;21308;-80
2023/04/22 01:15:11;;;;;;;9.13;5.77;;;;;;;7.33;62.72;100145.84;1468178;88;21456;-83
2023/04/22 01:17:38;;;;;;;11.57;6.03;;;;;;;7.29;62.44;100150.21;1465672;88;21553;-80
2023/04/22 01:20:08;;;;;;;13.03;6.90;;;;;;;7.24;61.64;100150.11;1469723;88;21442;-80
2023/04/22 01:22:39;;;;;;;14.33;5.53;;;;;;;7.21;62.48;100156.13;1458763;88;22331;-80
2023/04/22 01:25:06;;;;;;;7.63;4.90;;;;;;;7.17;61.71;100147.67;1475027;88;22417;-80
2023/04/22 01:27:34;;;;;;;8.17;6.07;;;;;;;7.14;62.05;100160.27;1475484;88;21924;-81
2023/04/22 01:30:01;;;;;;;7.80;5.40;;;;;;;7.03;62.98;100153.77;1472198;88;21508;-82
2023/04/22 01:32:29;;;;;;;9.70;6.23;;;;;;;7.03;62.98;100153.77;1459131;88;21412;-82
2023/04/22 01:34:55;;;;;;;9.37;5.53;;;;;;;7.03;63.39;100157.23;1474128;88;21308;-81
2023/04/22 01:37:22;;;;;;;10.90;5.90;;;;;;;6.98;63.71;100149.72;1469591;88;21471;-81
2023/04/22 01:39:49;;;;;;;11.87;5.40;;;;;;;6.99;63.27;100151.86;1472844;88;21419;-81
2023/04/22 01:42:15;;;;;;;9.50;4.90;;;;;;;7.06;62.84;100170.13;1470873;88;21428;-81
2023/04/22 01:44:41;;;;;;;9.57;5.60;;;;;;;7.09;62.81;100160.66;1471173;88;22029;-81
2023/04/22 01:47:07;;;;;;;7.73;5.53;;;;;;;7.09;62.45;100159.34;1469504;88;22292;-81
2023/04/22 01:49:34;;;;;;;10.27;5.63;;;;;;;7.09;61.96;100158.02;1471878;88;21355;-81
2023/04/22 01:52:00;;;;;;;8.00;5.23;;;;;;;7.02;62.08;100146.37;1466312;88;21967;-81
2023/04/22 01:54:26;;;;;;;14.37;7.80;;;;;;;7.06;62.42;100166.18;1475068;88;22976;-81
2023/04/22 01:56:54;;;;;;;8.30;5.43;;;;;;;7.01;62.26;100155.20;1471782;88;21330;-81
2023/04/22 01:59:21;;;;;;;10.37;5.80;;;;;;;6.93;62.50;100147.12;1466489;88;22627;-81
2023/04/22 02:01:47;;;;;;;9.93;5.57;;;;;;;6.93;62.92;100158.97;1466846;88;21345;-81
2023/04/22 02:04:13;;;;;;;7.07;4.83;;;;;;;6.89;62.97;100154.95;1477730;88;22347;-80
2023/04/22 02:06:40;;;;;;;9.23;5.93;;;;;;;6.85;63.03;100154.84;1472621;88;21286;-81
2023/04/22 02:09:06;;;;;;;7.30;4.83;;;;;;;6.81;63.30;100155.59;1474461;88;22225;-80
2023/04/22 02:11:32;;;;;;;9.87;5.50;;;;;;;6.77;63.64;100151.56;1468255;88;22351;-82
2023/04/22 02:13:58;;;;;;;8.90;4.83;;;;;;;6.72;63.07;100152.42;1466986;88;23123;-81
2023/04/22 02:16:25;;;;;;;9.23;5.20;;;;;;;6.69;63.26;100157.46;1475435;88;21627;-79
2023/04/22 02:18:51;;;;;;;20.80;7.03;;;;;;;6.65;63.45;100153.92;1468653;88;21589;-81
2023/04/22 02:21:18;;;;;;;9.43;5.70;;;;;;;6.63;63.32;100146.63;1470742;88;22168;-81
2023/04/22 02:23:44;;;;;;;8.53;5.77;;;;;;;6.63;63.49;100154.52;1465835;88;23256;-81
2023/04/22 02:26:10;;;;;;;8.30;5.13;;;;;;;6.66;63.98;100157.72;1461896;88;22051;-80
2023/04/22 02:28:36;;;;;;;8.37;4.93;;;;;;;6.71;63.50;100157.34;1481264;88;22067;-81
2023/04/22 02:31:03;;;;;;;7.23;4.97;;;;;;;6.71;63.49;100152.09;1475279;88;22524;-81
2023/04/22 02:33:29;;;;;;;8.87;5.50;;;;;;;6.71;63.49;100152.09;1474646;88;21567;-81
2023/04/22 02:35:55;;;;;;;12.60;6.50;;;;;;;6.71;63.11;100149.45;1464375;88;22285;-81
2023/04/22 02:38:22;;;;;;;9.53;5.03;;;;;;;6.71;62.91;100148.14;1468520;88;22023;-81
2023/04/22 02:40:48;;;;;;;8.17;5.67;;;;;;;6.68;63.65;100152.34;1473453;88;22281;-80
2023/04/22 02:43:14;;;;;;;11.63;5.43;;;;;;;6.64;62.64;100149.11;1475073;88;23014;-81
2023/04/22 02:45:40;;;;;;;8.73;5.10;;;;;;;6.62;62.69;100152.37;1463737;88;22240;-81
2023/04/22 02:48:06;;;;;;;9.10;5.30;;;;;;;6.58;63.25;100154.89;1468804;88;22170;-83
2023/04/22 02:50:32;;;;;;;12.50;4.73;;;;;;;6.54;63.57;100158.75;1466847;88;21345;-84
2023/04/22 02:52:58;;;;;;;10.70;5.37;;;;;;;6.49;64.28;100159.61;1467295;88;23153;-83
2023/04/22 02:55:24;;;;;;;9.67;5.40;;;;;;;6.45;64.11;100156.90;1472850;88;22104;-81
2023/04/22 02:57:51;;;;;;;12.13;5.20;;;;;;;6.37;63.63;100152.75;1466751;88;21404;-81
2023/04/22 03:00:17;;;;;;;8.97;5.97;;;;;;;6.35;64.04;100152.03;1476727;88;22956;-81
2023/04/22 03:02:43;;;;;;;8.80;5.00;;;;;;;6.27;64.85;100153.52;1467185;88;22407;-83
2023/04/22 03:05:10;;;;;;;9.57;5.47;;;;;;;6.22;63.96;100154.86;1473098;88;22571;-83
2023/04/22 03:07:36;;;;;;;11.77;5.73;;;;;;;6.17;64.83;100155.22;1466337;88;22177;-82
2023/04/22 03:10:03;;;;;;;11.83;5.73;;;;;;;6.14;65.00;100156.79;1472464;88;22476;-83
2023/04/22 03:12:29;;;;;;;10.03;5.63;;;;;;;6.13;65.84;100159.53;1467612;88;22171;-81
2023/04/22 03:14:56;;;;;;;11.90;5.77;;;;;;;6.12;66.32;100163.95;1471635;88;22038;-79
2023/04/22 03:17:22;;;;;;;5.67;4.27;;;;;;;6.13;66.73;100164.78;1472786;88;22325;-81
2023/04/22 03:19:48;;;;;;;11.07;6.37;;;;;;;6.14;66.20;100165.98;1470990;88;22155;-81
2023/04/22 03:22:15;;;;;;;8.70;5.07;;;;;;;6.13;66.51;100168.27;1473639;88;22330;-80
2023/04/22 03:24:41;;;;;;;10.10;5.33;;;;;;;6.10;66.36;100168.04;1469801;88;23018;-80
2023/04/22 03:27:08;;;;;;;9.90;5.40;;;;;;;6.08;66.52;100170.44;1481085;88;22104;-80
2023/04/22 03:29:34;;;;;;;11.77;6.50;;;;;;;6.05;66.31;100170.69;1447991;88;22214;-83
2023/04/22 03:32:01;;;;;;;11.43;5.67;;;;;;;6.03;66.86;100176.53;1471488;88;22992;-80
2023/04/22 03:34:27;;;;;;;9.07;5.63;;;;;;;5.86;66.62;100176.55;1472934;88;22103;-81
2023/04/22 03:36:53;;;;;;;10.10;6.03;;;;;;;5.86;66.62;100176.55;1464345;88;22117;-81
2023/04/22 03:39:19;;;;;;;9.73;6.07;;;;;;;5.81;66.06;100183.50;1476997;88;22149;-81
2023/04/22 03:41:45;;;;;;;9.33;6.07;;;;;;;5.82;66.93;100193.04;1473915;88;23014;-81
2023/04/22 03:44:11;;;;;;;11.67;6.60;;;;;;;5.80;67.21;100191.48;1472700;88;22332;-80
2023/04/22 03:46:37;;;;;;;10.93;5.83;;;;;;;5.77;67.95;100195.19;1451459;88;22673;-81
2023/04/22 03:49:04;;;;;;;8.20;5.50;;;;;;;5.77;67.95;100195.19;1472393;88;22052;-80
2023/04/22 03:51:30;;;;;;;11.77;5.93;;;;;;;5.76;68.33;100200.09;1462794;88;22180;-79
2023/04/22 03:53:56;;;;;;;6.07;4.23;;;;;;;5.78;67.98;100200.82;1474938;88;22553;-81
2023/04/22 03:56:23;;;;;;;7.07;4.60;;;;;;;5.83;68.02;100203.89;1467901;88;22028;-81
2023/04/22 03:58:50;;;;;;;11.13;6.33;;;;;;;5.88;68.88;100206.16;1469251;88;22097;-81
2023/04/22 04:01:16;;;;;;;13.07;7.10;;;;;;;5.91;67.86;100205.91;1472527;88;22126;-81
2023/04/22 04:03:42;;;;;;;8.13;5.30;;;;;;;5.95;67.49;100208.67;1460439;88;22375;-79
2023/04/22 04:06:08;;;;;;;11.50;5.83;;;;;;;5.98;67.89;100208.91;1477492;88;22941;-81
2023/04/22 04:08:34;;;;;;;10.97;6.30;;;;;;;6.01;68.71;100209.52;1470061;88;22067;-80
2023/04/22 04:11:01;;;;;;;7.77;5.17;;;;;;;6.05;68.32;100212.23;1467183;88;22348;-82
2023/04/22 04:13:31;;;;;;;10.73;6.10;;;;;;;6.09;68.02;100216.27;1474781;88;23057;-80
2023/04/22 04:15:55;;;;;;;10.53;6.37;;;;;;;6.15;67.98;100223.31;1452100;88;22177;-82
2023/04/22 04:18:21;;;;;;;14.27;7.20;;;;;;;6.18;68.21;100218.63;1468682;88;22200;-81
2023/04/22 04:20:47;;;;;;;49.90;22.40;;;;;;;6.22;67.80;100225.33;1468780;88;22189;-82
2023/04/22 04:23:13;;;;;;;43.33;18.30;;;;;;;6.26;67.29;100221.48;1434118;90;22102;-82
2023/04/22 04:25:41;;;;;;;30.30;16.17;;;;;;;6.33;67.19;100226.61;1437304;91;22055;-82
2023/04/22 04:28:10;;;;;;;49.97;22.07;;;;;;;6.42;67.16;100233.39;1433665;91;22123;-80
2023/04/22 04:30:37;;;;;;;52.10;21.03;;;;;;;6.51;67.33;100237.89;1468988;88;22946;-80
2023/04/22 04:33:05;;;;;;;34.90;15.17;;;;;;;6.65;67.70;100244.16;1449154;90;22042;-80
2023/04/22 04:35:38;;;;;;;27.20;11.53;;;;;;;6.82;67.83;100249.80;1438346;91;23123;-80
2023/04/22 04:38:05;;;;;;;14.93;6.97;;;;;;;6.99;68.05;100255.80;1468846;88;21450;-80
2023/04/22 04:40:33;;;;;;;14.67;7.13;;;;;;;7.18;68.02;100259.88;1467564;88;21574;-80
2023/04/22 04:43:01;;;;;;;15.77;7.07;;;;;;;7.32;68.67;100252.61;1478676;88;21412;-81
2023/04/22 04:45:28;;;;;;;12.90;6.80;;;;;;;7.51;68.23;100256.66;1480707;88;21553;-81
2023/04/22 04:47:55;;;;;;;10.93;6.40;;;;;;;7.66;67.02;100263.23;1466978;88;21412;-81
2023/04/22 04:50:21;;;;;;;16.77;7.50;;;;;;;7.77;66.37;100258.81;1472257;88;21650;-81
2023/04/22 04:52:48;;;;;;;14.60;7.93;;;;;;;7.85;65.91;100254.58;1453558;88;21457;-81
2023/04/22 04:55:16;;;;;;;10.33;6.30;;;;;;;7.93;65.91;100249.92;1476917;88;21493;-81
2023/04/22 04:57:44;;;;;;;10.77;6.53;;;;;;;8.02;65.73;100255.70;1473113;88;21553;-81
2023/04/22 05:00:13;;;;;;;9.30;6.80;;;;;;;8.13;65.32;100260.86;1476209;88;21389;-79
2023/04/22 05:02:40;;;;;;;10.80;6.33;;;;;;;8.26;64.87;100257.16;1466792;88;21367;-81
2023/04/22 05:05:07;;;;;;;10.60;6.53;;;;;;;8.40;64.61;100254.16;1468819;88;21353;-82
2023/04/22 05:07:34;;;;;;;9.33;6.27;;;;;;;8.53;64.44;100257.33;1482352;88;21339;-82
2023/04/22 05:10:00;;;;;;;11.23;6.33;;;;;;;8.66;63.90;100254.89;1475949;88;21516;-82
2023/04/22 05:12:26;;;;;;;9.80;6.30;;;;;;;8.79;63.51;100256.77;1464774;88;21403;-81
2023/04/22 05:14:52;;;;;;;15.23;5.40;;;;;;;8.90;62.75;100265.03;1474649;88;22448;-81
2023/04/22 05:17:19;;;;;;;8.60;5.40;;;;;;;9.02;62.06;100259.94;1474217;88;21369;-81
2023/04/22 05:19:46;;;;;;;11.43;5.97;;;;;;;9.11;60.98;100255.62;1450287;88;21637;-81
2023/04/22 05:22:12;;;;;;;10.70;5.63;;;;;;;9.19;61.01;100257.89;1478479;88;21745;-80
2023/04/22 05:24:39;;;;;;;9.13;6.53;;;;;;;9.29;60.74;100259.17;1471302;88;21375;-81
2023/04/22 05:27:05;;;;;;;12.70;5.63;;;;;;;9.40;60.64;100251.08;1478265;88;21538;-83
2023/04/22 05:29:31;;;;;;;8.80;5.70;;;;;;;9.51;60.56;100254.03;1474680;88;21456;-81
2023/04/22 05:31:58;;;;;;;9.50;6.03;;;;;;;9.63;59.73;100252.04;1426696;88;21525;-80
2023/04/22 05:34:24;;;;;;;10.40;6.33;;;;;;;9.73;59.25;100252.84;1477673;88;21405;-82
2023/04/22 05:36:50;;;;;;;9.30;5.90;;;;;;;9.85;59.33;100247.70;1471846;88;22469;-82
2023/04/22 05:39:17;;;;;;;12.83;5.57;;;;;;;9.97;58.77;100244.86;1461490;88;21456;-81
2023/04/22 05:41:44;;;;;;;13.00;5.30;;;;;;;10.09;58.34;100251.59;1472121;88;21391;-82
2023/04/22 05:44:10;;;;;;;8.33;5.90;;;;;;;10.16;57.26;100250.86;1474409;88;21552;-82
2023/04/22 05:46:36;;;;;;;10.97;5.57;;;;;;;10.26;57.06;100248.14;1473214;88;21420;-82
2023/04/22 05:49:02;;;;;;;6.90;5.20;;;;;;;10.43;57.47;100250.48;1475549;88;21375;-82
2023/04/22 05:51:28;;;;;;;9.47;6.30;;;;;;;10.61;57.39;100253.13;1452012;88;21380;-82
2023/04/22 05:53:54;;;;;;;12.30;4.97;;;;;;;10.81;57.26;100256.44;1469012;88;21419;-82
2023/04/22 05:56:21;;;;;;;11.07;6.30;;;;;;;10.98;56.88;100255.58;1477083;88;21537;-83
2023/04/22 05:58:47;;;;;;;9.27;6.13;;;;;;;11.18;56.34;100258.04;1471371;88;21383;-82
2023/04/22 06:01:13;;;;;;;7.20;5.43;;;;;;;11.37;56.15;100260.98;1474112;88;22447;-83
2023/04/22 06:03:39;;;;;;;6.40;4.60;;;;;;;11.51;55.01;100268.35;1475720;88;21463;-83
2023/04/22 06:06:06;;;;;;;7.57;5.27;;;;;;;11.67;54.38;100266.27;1473986;88;21420;-83
2023/04/22 06:08:33;;;;;;;13.53;5.80;;;;;;;11.81;52.47;100261.69;1471646;88;21501;-82
2023/04/22 06:10:59;;;;;;;9.43;5.20;;;;;;;11.98;53.44;100255.98;1474293;88;21389;-82
2023/04/22 06:13:26;;;;;;;8.40;5.03;;;;;;;12.14;53.00;100255.19;1474413;88;22563;-83
2023/04/22 06:15:52;;;;;;;8.30;5.23;;;;;;;12.29;52.39;100259.39;1470844;88;21367;-81
2023/04/22 06:18:18;;;;;;;12.13;6.07;;;;;;;12.47;52.62;100262.73;1472200;88;22314;-82
2023/04/22 06:20:45;;;;;;;10.67;5.77;;;;;;;12.65;52.01;100259.92;1473649;88;21455;-81
2023/04/22 06:23:11;;;;;;;10.23;5.33;;;;;;;12.80;50.72;100254.77;1467194;88;21317;-83
2023/04/22 06:25:37;;;;;;;8.77;5.50;;;;;;;12.99;49.37;100256.27;1469337;88;21596;-84
2023/04/22 06:28:04;;;;;;;8.47;5.47;;;;;;;13.15;50.52;100255.41;1471579;88;21316;-84
2023/04/22 06:30:30;;;;;;;9.10;5.13;;;;;;;13.31;50.10;100255.42;1467977;88;21390;-82
2023/04/22 06:32:56;;;;;;;12.23;4.83;;;;;;;13.45;47.43;100255.23;1470874;88;21504;-84
2023/04/22 06:35:22;;;;;;;9.00;5.23;;;;;;;13.61;46.41;100255.19;1473971;88;21343;-84
2023/04/22 06:37:49;;;;;;;10.00;5.63;;;;;;;13.76;46.49;100267.27;1466061;88;21382;-79
2023/04/22 06:40:15;;;;;;;9.30;5.23;;;;;;;13.92;47.47;100269.84;1463657;88;21390;-81
2023/04/22 06:42:41;;;;;;;15.73;5.23;;;;;;;14.09;47.61;100262.61;1475198;88;22563;-80
2023/04/22 06:45:11;;;;;;;7.30;5.30;;;;;;;14.22;46.67;100258.89;1469183;88;21331;-80
2023/04/22 06:47:39;;;;;;;10.95;4.85;;;;;;;14.37;46.05;100258.95;1474241;88;21448;-83
2023/04/22 06:50:11;;;;;;;11.57;6.43;;;;;;;14.52;46.14;100259.56;1462746;88;21523;-83
2023/04/22 06:52:37;;;;;;;11.83;5.03;;;;;;;14.58;44.00;100263.66;1555751;88;21242;-80
2023/04/22 06:55:04;;;;;;;9.33;5.67;;;;;;;14.77;45.31;100261.55;1397052;88;21228;-80
2023/04/22 06:57:30;;;;;;;13.80;5.10;;;;;;;14.99;45.23;100266.50;1402470;88;21435;-80
2023/04/22 06:59:56;;;;;;;8.03;5.30;;;;;;;15.12;42.49;100269.39;1397292;88;21404;-82
2023/04/22 07:02:23;;;;;;;8.77;4.77;;;;;;;15.21;43.86;100263.48;1397088;88;22227;-79
2023/04/22 07:04:49;;;;;;;14.20;5.13;;;;;;;15.35;43.84;100269.34;1388988;88;21280;-81
2023/04/22 07:07:15;;;;;;;8.50;5.13;;;;;;;15.47;42.77;100265.70;1468709;88;21390;-80
2023/04/22 07:09:41;;;;;;;12.37;10.03;;;;;;;15.57;41.40;100271.09;1473665;88;21737;-82
2023/04/22 07:12:08;;;;;;;13.07;6.33;;;;;;;15.72;42.99;100266.30;1450672;89;21457;-82
2023/04/22 07:14:34;;;;;;;8.63;6.03;;;;;;;15.81;42.29;100269.18;1446090;90;21565;-79
2023/04/22 07:17:00;;;;;;;9.40;5.80;;;;;;;15.95;42.43;100272.86;1428207;90;21383;-82
2023/04/22 07:19:26;;;;;;;11.97;7.40;;;;;;;16.11;42.43;100271.31;1443671;90;21457;-84
2023/04/22 07:21:53;;;;;;;26.57;17.33;;;;;;;16.28;41.67;100264.39;1449966;90;21361;-82
2023/04/22 07:24:19;;;;;;;43.93;31.07;;;;;;;16.47;41.97;100271.28;1431489;91;21479;-82
2023/04/22 07:26:45;;;;;;;17.03;10.50;;;;;;;16.59;41.62;100268.94;1434948;90;21677;-80
2023/04/22 07:29:11;;;;;;;9.03;6.10;;;;;;;16.63;39.65;100271.56;1431667;90;21466;-81
2023/04/22 07:31:38;;;;;;;8.70;5.33;;;;;;;16.74;41.14;100270.72;1436579;91;21369;-78
2023/04/22 07:34:10;;;;;;;26.60;6.23;;;;;;;16.79;40.38;100275.02;1443887;89;21309;-77
2023/04/22 07:36:36;;;;;;;6.97;4.97;;;;;;;16.65;38.57;100274.84;1422040;91;21472;-78
2023/04/22 07:39:03;;;;;;;7.27;4.80;;;;;;;16.87;40.79;100269.54;1432541;91;22358;-77
2023/04/22 07:41:29;;;;;;;23.50;8.63;;;;;;;16.99;37.68;100270.66;1442029;89;21501;-78
2023/04/22 07:43:56;;;;;;;14.23;5.40;;;;;;;17.03;39.71;100266.60;1437821;91;21450;-79
2023/04/22 07:46:22;;;;;;;15.23;5.60;;;;;;;17.14;39.83;100267.37;1449947;88;21838;-80
2023/04/22 07:48:48;;;;;;;12.73;5.60;;;;;;;17.28;38.64;100271.50;1452387;88;21471;-80
2023/04/22 07:51:14;;;;;;;7.60;5.10;;;;;;;17.23;38.16;100266.72;1470245;88;22269;-79
2023/04/22 07:53:40;;;;;;;10.80;5.10;;;;;;;17.39;39.75;100265.61;1468943;88;21575;-78
2023/04/22 07:56:06;;;;;;;8.60;5.10;;;;;;;17.43;36.76;100273.55;1465195;88;21894;-79
2023/04/22 07:58:33;;;;;;;12.47;5.50;;;;;;;17.17;36.35;100266.69;1473188;88;21527;-80
2023/04/22 08:00:59;;;;;;;9.80;4.50;;;;;;;17.31;37.60;100276.45;1474275;88;21449;-77
2023/04/22 08:03:25;;;;;;;8.00;4.50;;;;;;;17.49;37.42;100261.23;1471088;88;21464;-79
2023/04/22 08:05:51;;;;;;;10.83;5.07;;;;;;;17.67;36.57;100262.08;1454400;88;21570;-79
2023/04/22 08:08:18;;;;;;;12.50;6.13;;;;;;;17.78;37.90;100261.03;1452270;88;21412;-78
2023/04/22 08:10:44;;;;;;;11.27;4.70;;;;;;;18.04;38.09;100261.66;1468064;88;22455;-79
2023/04/22 08:13:10;;;;;;;5.73;4.37;;;;;;;18.15;34.54;100258.89;1474322;88;22396;-79
2023/04/22 08:15:36;;;;;;;12.43;5.13;;;;;;;18.25;36.81;100262.55;1453407;88;21308;-78
2023/04/22 08:18:03;;;;;;;7.77;4.67;;;;;;;18.10;33.09;100259.21;1476786;88;21461;-80
2023/04/22 08:20:29;;;;;;;9.00;5.33;;;;;;;17.97;33.95;100259.45;1473198;88;21434;-82
2023/04/22 08:22:59;;;;;;;17.53;5.07;;;;;;;18.00;34.14;100263.06;1474121;88;22232;-82
2023/04/22 08:25:23;;;;;;;9.43;4.87;;;;;;;18.20;34.72;100263.66;1466364;88;21398;-81
2023/04/22 08:27:50;;;;;;;8.67;4.83;;;;;;;18.27;34.33;100263.18;1472425;88;21375;-82
2023/04/22 08:30:17;;;;;;;9.00;5.73;;;;;;;18.17;34.87;100262.72;1473646;88;21530;-81
2023/04/22 08:32:44;;;;;;;9.80;5.60;;;;;;;18.40;34.12;100256.50;1437283;88;21360;-81
2023/04/22 08:35:11;;;;;;;11.10;4.80;;;;;;;18.69;35.19;100259.84;1476219;88;21286;-81
2023/04/22 08:37:37;;;;;;;6.30;4.63;;;;;;;18.79;33.21;100260.80;1469853;88;21330;-81
2023/04/22 08:40:05;;;;;;;6.67;4.37;;;;;;;19.00;34.16;100263.30;1473166;88;21404;-81
2023/04/22 08:42:32;;;;;;;12.00;4.50;;;;;;;19.00;33.00;100263.81;1471317;88;21519;-81
2023/04/22 08:45:01;;;;;;;7.53;4.90;;;;;;;19.01;32.84;100266.79;1477694;88;21485;-81
2023/04/22 08:47:28;;;;;;;7.10;4.27;;;;;;;19.14;33.14;100264.11;1475370;88;21581;-82
2023/04/22 08:49:55;;;;;;;10.33;5.30;;;;;;;19.27;31.09;100264.08;1472992;88;21546;-81
2023/04/22 08:52:21;;;;;;;7.45;5.50;;;;;;;19.49;33.24;100261.17;1464846;88;21383;-81
2023/04/22 08:54:48;;;;;;;10.10;4.87;;;;;;;19.69;33.55;100264.66;1475805;88;21405;-81
2023/04/22 08:57:15;;;;;;;11.00;5.03;;;;;;;19.82;32.03;100264.63;1472197;88;21653;-82
2023/04/22 09:03:40;;;;;;;7.65;5.45;;;;;;;20.10;31.92;100263.45;1477001;88;21332;-81
2023/04/22 09:06:09;;;;;;;5.70;4.80;;;;;;;20.08;30.42;100261.49;1469887;88;22608;-82
2023/04/22 09:08:35;;;;;;;7.87;4.20;;;;;;;20.23;29.95;100267.44;1480749;88;21390;-81
2023/04/22 09:11:03;;;;;;;5.85;4.58;;;;;;;19.91;27.30;100265.21;1466434;88;22416;-80
2023/04/22 09:13:29;;;;;;;9.40;4.92;;;;;;;19.81;28.67;100270.19;1469846;88;21471;-81
2023/04/22 09:15:56;;;;;;;9.88;4.92;;;;;;;19.63;28.81;100261.97;1474685;88;21554;-82
2023/04/22 09:18:22;;;;;;;7.20;4.50;;;;;;;19.71;28.23;100264.42;1475726;88;21345;-82
2023/04/22 09:20:50;;;;;;;14.45;4.45;;;;;;;19.81;29.09;100260.27;1466489;88;21464;-80
2023/04/22 09:23:17;;;;;;;11.12;4.87;;;;;;;20.02;29.59;100254.30;1475942;88;21955;-82
2023/04/22 09:25:45;;;;;;;17.95;4.58;;;;;;;20.27;30.38;100251.17;1471814;88;22467;-81
2023/04/22 09:28:14;;;;;;;7.47;4.42;;;;;;;20.51;30.28;100250.94;1475135;88;21382;-83
2023/04/22 09:30:40;;;;;;;6.15;4.33;;;;;;;20.57;27.65;100254.66;1443223;88;21596;-83
2023/04/22 09:33:07;;;;;;;9.58;4.22;;;;;;;20.31;26.37;100252.08;1462081;88;21382;-82
2023/04/22 09:35:36;;;;;;;6.58;4.58;;;;;;;20.47;28.30;100242.17;1453476;88;21410;-84
2023/04/22 09:38:06;;;;;;;11.25;5.00;;;;;;;20.43;27.85;100247.16;1477873;88;22270;-84
2023/04/22 09:40:34;;;;;;;6.78;4.15;;;;;;;20.41;26.53;100244.38;1467830;88;22543;-83
2023/04/22 09:43:08;;;;;;;12.10;4.50;;;;;;;20.31;26.86;100248.05;1463086;88;21389;-83
2023/04/22 09:45:39;;;;;;;8.23;4.62;;;;;;;20.27;27.30;100244.98;1477940;88;21294;-83
2023/04/22 09:48:16;;;;;;;11.55;5.22;;;;;;;20.33;26.89;100241.42;1473218;88;21515;-83
2023/04/22 09:50:48;;;;;;;8.88;3.80;;;;;;;20.54;27.98;100234.08;1477588;88;21302;-83
2023/04/22 09:53:22;;;;;;;10.08;4.20;;;;;;;20.43;26.67;100230.22;1466066;88;21448;-83
2023/04/22 09:55:50;;;;;;;8.35;4.35;;;;;;;20.71;27.43;100230.66;1478770;88;21621;-84
2023/04/22 09:58:19;;;;;;;6.35;3.90;;;;;;;20.80;27.10;100233.91;1471271;88;21533;-84
2023/04/22 10:00:53;;;;;;;5.70;4.00;;;;;;;21.13;27.81;100226.87;1469300;88;21360;-84
2023/04/22 10:03:20;;;;;;;10.23;4.22;;;;;;;21.45;28.05;100225.44;1475638;88;21426;-83
2023/04/22 10:05:46;;;;;;;13.85;4.78;;;;;;;21.74;27.97;100227.08;1471069;88;21302;-84
2023/04/22 10:08:14;;;;;;;7.97;4.33;;;;;;;21.98;27.54;100229.35;1476423;88;21655;-83
2023/04/22 10:10:42;;;;;;;5.47;3.90;;;;;;;22.15;27.18;100222.27;1472194;88;21441;-83
2023/04/22 10:13:08;;;;;;;9.75;4.20;;;;;;;22.40;27.38;100220.81;1422372;88;21625;-81
2023/04/22 10:15:42;;;;;;;6.35;4.03;;;;;;;22.49;26.47;100214.56;1474119;88;21449;-81
2023/04/22 10:18:12;;;;;;;5.78;3.98;;;;;;;22.47;26.40;100215.31;1538227;88;21449;-81
2023/04/22 10:20:41;;;;;;;3.92;3.52;;;;;;;21.86;24.13;100210.44;1486833;88;22300;-81
2023/04/22 10:23:18;;;;;;;5.90;4.25;;;;;;;21.89;25.76;100212.68;1470208;88;22255;-81
2023/04/22 10:25:51;;;;;;;6.90;4.05;;;;;;;21.68;26.01;100202.39;1471391;88;21445;-81
2023/04/22 10:28:20;;;;;;;8.23;4.10;;;;;;;21.57;25.59;100208.82;1469026;88;22506;-81
2023/04/22 10:30:47;;;;;;;13.88;4.97;;;;;;;21.16;25.36;100208.93;1480040;88;21331;-80
2023/04/22 10:33:30;;;;;;;10.35;4.17;;;;;;;21.11;25.96;100203.39;1469722;88;22167;-81
2023/04/22 10:36:19;;;;;;;7.58;4.17;;;;;;;21.23;24.86;100206.16;1476876;88;22469;-84
2023/04/22 10:39:00;;;;;;;6.40;4.03;;;;;;;21.07;24.74;100204.89;1470838;88;21391;-85
2023/04/22 10:41:30;;;;;;;4.92;3.65;;;;;;;21.24;26.22;100205.66;1471171;88;21390;-85
2023/04/22 10:44:07;;;;;;;8.75;4.00;;;;;;;21.44;25.18;100200.10;1474126;88;21378;-85
2023/04/22 10:46:44;;;;;;;4.80;4.17;;;;;;;21.76;25.80;100204.78;1472985;88;21309;-85
2023/04/22 10:49:14;;;;;;;5.03;3.87;;;;;;;22.38;26.11;100182.47;1485058;88;21427;-85
2023/04/22 10:51:59;;;;;;;11.90;4.05;;;;;;;22.38;26.11;100182.47;1454426;88;21912;-85
2023/04/22 10:54:35;;;;;;;7.00;4.05;;;;;;;22.46;26.48;100198.31;1473020;88;21301;-85
2023/04/22 10:57:06;;;;;;;9.33;3.90;;;;;;;22.20;25.34;100194.68;1473705;88;21463;-86
2023/04/22 10:59:54;;;;;;;6.47;4.30;;;;;;;22.20;25.34;100194.68;1469586;88;21603;-85
2023/04/22 11:02:22;;;;;;;8.20;4.17;;;;;;;22.11;26.34;100197.38;1474582;88;21464;-85
2023/04/22 11:04:53;;;;;;;9.35;4.10;;;;;;;22.14;25.58;100194.22;1470336;88;21361;-85
2023/04/22 11:07:29;;;;;;;7.40;4.42;;;;;;;22.72;27.40;100193.55;1476685;88;21368;-86
2023/04/22 11:10:04;;;;;;;7.85;4.12;;;;;;;22.72;27.40;100193.55;1472013;88;22225;-85
2023/04/22 11:12:41;;;;;;;5.55;4.15;;;;;;;23.04;25.59;100186.50;1461547;88;21464;-83
2023/04/22 11:15:16;;;;;;;7.83;3.85;;;;;;;23.35;25.61;100183.41;1474901;88;21331;-86
2023/04/22 11:17:49;;;;;;;7.95;3.80;;;;;;;23.52;24.90;100190.78;1477541;88;21494;-85
2023/04/22 11:20:18;;;;;;;8.28;3.67;;;;;;;23.45;24.07;100190.92;1478728;88;21990;-84
2023/04/22 11:22:52;;;;;;;6.12;4.08;;;;;;;23.12;24.69;100188.84;1469042;87;22344;-85
2023/04/22 11:25:19;;;;;;;6.03;3.55;;;;;;;22.83;25.09;100185.18;1472074;88;21441;-84
2023/04/22 11:27:46;;;;;;;12.00;3.67;;;;;;;22.19;24.82;100191.17;1474320;88;22440;-84
2023/04/22 11:30:22;;;;;;;8.95;4.10;;;;;;;21.50;23.16;100187.08;1471534;88;21390;-85
2023/04/22 11:32:52;;;;;;;10.98;4.80;;;;;;;21.50;23.16;100187.08;1557671;88;21250;-85